createdAt,value
2018-06-21T00:01:45.503Z,13.47
2018-06-21T00:04:14.143Z,14.30
2018-06-21T00:06:42.768Z,17.43
2018-06-21T00:09:11.423Z,17.30
2018-06-21T00:11:41.059Z,16.23
2018-06-21T00:14:09.967Z,21.20
2018-06-21T00:16:38.589Z,18.63
2018-06-21T00:19:07.503Z,14.50
2018-06-21T00:21:36.141Z,19.03
2018-06-21T00:24:04.770Z,16.20
2018-06-21T00:26:33.415Z,17.17
2018-06-21T00:29:02.065Z,18.73
2018-06-21T00:31:30.772Z,13.77
2018-06-21T00:33:59.381Z,14.87
2018-06-21T00:36:28.346Z,14.17
2018-06-21T00:38:56.975Z,17.23
2018-06-21T00:41:25.882Z,13.37
2018-06-21T00:43:54.522Z,14.07
2018-06-21T00:46:23.157Z,12.07
2018-06-21T00:48:51.774Z,14.10
2018-06-21T00:51:21.199Z,13.57
2018-06-21T00:53:49.890Z,12.87
2018-06-21T00:56:20.515Z,13.67
2018-06-21T00:58:50.070Z,13.27
2018-06-21T01:01:19.035Z,15.43
2018-06-21T01:03:48.195Z,16.20
2018-06-21T01:06:16.873Z,18.33
2018-06-21T01:08:45.515Z,11.57
2018-06-21T01:11:14.299Z,12.33
2018-06-21T01:13:42.899Z,15.27
2018-06-21T01:16:11.822Z,11.73
2018-06-21T01:18:40.446Z,18.03
2018-06-21T01:21:09.133Z,13.67
2018-06-21T01:23:37.755Z,13.37
2018-06-21T01:26:06.630Z,12.60
2018-06-21T01:28:35.257Z,13.53
2018-06-21T01:31:03.959Z,14.87
2018-06-21T01:33:32.583Z,16.40
2018-06-21T01:36:01.791Z,12.63
2018-06-21T01:38:30.579Z,14.53
2018-06-21T01:40:59.242Z,14.60
2018-06-21T01:43:27.867Z,12.57
2018-06-21T01:45:56.508Z,13.07
2018-06-21T01:48:25.139Z,11.83
2018-06-21T01:50:53.805Z,16.33
2018-06-21T01:53:22.408Z,12.37
2018-06-21T01:55:51.053Z,11.70
2018-06-21T01:58:19.629Z,13.57
2018-06-21T02:00:48.238Z,13.13
2018-06-21T02:03:16.857Z,15.07
2018-06-21T02:05:45.752Z,13.73
2018-06-21T02:08:14.431Z,14.33
2018-06-21T02:10:43.046Z,16.83
2018-06-21T02:13:11.658Z,16.40
2018-06-21T02:15:40.550Z,20.70
2018-06-21T02:18:09.218Z,21.70
2018-06-21T02:20:37.853Z,16.73
2018-06-21T02:23:06.490Z,17.67
2018-06-21T02:25:35.156Z,18.03
2018-06-21T02:28:03.839Z,16.93
2018-06-21T02:30:32.462Z,15.10
2018-06-21T02:33:01.093Z,20.23
2018-06-21T02:35:30.328Z,14.83
2018-06-21T02:37:58.935Z,16.33
2018-06-21T02:40:27.595Z,13.40
2018-06-21T02:42:56.294Z,19.53
2018-06-21T02:45:25.232Z,15.43
2018-06-21T02:47:54.198Z,16.57
2018-06-21T02:50:22.843Z,16.60
2018-06-21T02:52:51.550Z,15.53
2018-06-21T02:55:20.247Z,23.83
2018-06-21T02:57:49.196Z,23.33
2018-06-21T03:00:18.157Z,20.77
2018-06-21T03:02:46.794Z,17.13
2018-06-21T03:05:15.693Z,19.90
2018-06-21T03:07:44.320Z,18.33
2018-06-21T03:10:12.982Z,15.63
2018-06-21T03:12:41.952Z,19.37
2018-06-21T03:15:10.885Z,20.93
2018-06-21T03:17:39.594Z,17.93
2018-06-21T03:20:08.271Z,17.77
2018-06-21T03:22:36.965Z,22.37
2018-06-21T03:25:05.623Z,16.63
2018-06-21T03:27:34.547Z,13.93
2018-06-21T03:30:03.177Z,18.27
2018-06-21T03:32:32.090Z,16.33
2018-06-21T03:35:00.760Z,21.10
2018-06-21T03:37:29.771Z,17.57
2018-06-21T03:39:58.437Z,15.27
2018-06-21T03:42:27.067Z,19.47
2018-06-21T03:44:55.705Z,20.87
2018-06-21T03:47:24.382Z,19.40
2018-06-21T03:49:52.984Z,18.60
2018-06-21T03:52:21.672Z,22.37
2018-06-21T03:54:50.688Z,21.53
2018-06-21T03:57:19.337Z,22.00
2018-06-21T03:59:47.967Z,20.90
2018-06-21T04:02:16.710Z,21.93
2018-06-21T04:04:45.354Z,19.07
2018-06-21T04:07:14.063Z,19.90
2018-06-21T04:09:42.708Z,22.27
2018-06-21T04:12:11.357Z,23.53
2018-06-21T04:14:40.124Z,19.97
2018-06-21T04:17:08.764Z,19.40
2018-06-21T04:19:37.508Z,20.27
2018-06-21T04:22:06.168Z,19.40
2018-06-21T04:24:35.107Z,17.87
2018-06-21T04:27:03.770Z,18.03
2018-06-21T04:29:32.451Z,17.37
2018-06-21T04:32:01.128Z,16.37
2018-06-21T04:34:30.458Z,15.30
2018-06-21T04:36:59.408Z,23.53
2018-06-21T04:39:28.386Z,17.17
2018-06-21T04:41:57.264Z,20.93
2018-06-21T04:44:26.086Z,20.57
2018-06-21T04:46:54.793Z,18.17
2018-06-21T04:49:23.787Z,22.47
2018-06-21T04:51:52.419Z,22.63
2018-06-21T04:54:21.103Z,24.33
2018-06-21T04:56:50.087Z,26.37
2018-06-21T04:59:18.791Z,22.47
2018-06-21T05:01:47.394Z,19.13
2018-06-21T05:04:16.350Z,17.90
2018-06-21T05:06:45.086Z,17.60
2018-06-21T05:09:14.063Z,17.23
2018-06-21T05:11:42.769Z,23.70
2018-06-21T05:14:11.424Z,19.67
2018-06-21T05:16:40.128Z,16.40
2018-06-21T05:19:08.798Z,16.60
2018-06-21T05:21:37.498Z,21.50
2018-06-21T05:24:06.371Z,23.80
2018-06-21T05:26:35.539Z,21.23
2018-06-21T05:29:04.966Z,18.73
2018-06-21T05:31:33.631Z,22.30
2018-06-21T05:34:02.254Z,22.50
2018-06-21T05:36:31.251Z,24.23
2018-06-21T05:39:00.157Z,19.43
2018-06-21T05:41:28.881Z,20.20
2018-06-21T05:43:57.531Z,22.87
2018-06-21T05:46:26.456Z,22.93
2018-06-21T05:48:55.401Z,24.57
2018-06-21T05:51:24.287Z,21.93
2018-06-21T05:53:52.991Z,25.47
2018-06-21T05:56:22.308Z,25.47
2018-06-21T05:58:50.966Z,27.33
2018-06-21T06:01:19.651Z,27.73
2018-06-21T06:03:48.848Z,23.27
2018-06-21T06:06:17.522Z,21.13
2018-06-21T06:08:46.192Z,20.13
2018-06-21T06:11:14.858Z,22.23
2018-06-21T06:13:43.514Z,17.50
2018-06-21T06:16:12.727Z,17.87
2018-06-21T06:18:41.426Z,20.30
2018-06-21T06:21:10.041Z,22.13
2018-06-21T06:23:38.636Z,20.00
2018-06-21T06:26:07.275Z,23.38
2018-06-21T06:28:36.037Z,22.98
2018-06-21T06:31:04.676Z,17.62
2018-06-21T06:33:33.324Z,17.37
2018-06-21T06:36:01.962Z,19.48
2018-06-21T06:38:30.582Z,17.20
2018-06-21T06:40:59.241Z,19.35
2018-06-21T06:43:28.161Z,16.60
2018-06-21T06:45:57.179Z,16.45
2018-06-21T06:48:26.627Z,14.85
2018-06-21T06:50:55.865Z,18.57
2018-06-21T06:53:24.821Z,14.58
2018-06-21T06:55:53.512Z,15.45
2018-06-21T06:58:22.436Z,14.40
2018-06-21T07:00:51.160Z,14.38
2018-06-21T07:03:19.763Z,16.80
2018-06-21T07:05:48.460Z,20.00
2018-06-21T07:08:19.010Z,15.40
2018-06-21T07:10:47.651Z,18.50
2018-06-21T07:13:16.287Z,15.75
2018-06-21T07:15:44.971Z,18.20
2018-06-21T07:18:13.581Z,19.37
2018-06-21T07:20:42.246Z,18.23
2018-06-21T07:23:10.882Z,16.70
2018-06-21T07:25:39.522Z,17.80
2018-06-21T07:28:08.172Z,16.15
2018-06-21T07:30:36.770Z,17.15
2018-06-21T07:33:05.412Z,15.13
2018-06-21T07:35:34.032Z,17.52
2018-06-21T07:38:02.933Z,16.75
2018-06-21T07:40:31.638Z,14.33
2018-06-21T07:43:00.306Z,13.85
2018-06-21T07:45:29.059Z,14.23
2018-06-21T07:47:58.020Z,15.10
2018-06-21T07:50:26.643Z,15.88
2018-06-21T07:52:55.251Z,15.65
2018-06-21T07:55:24.110Z,13.53
2018-06-21T07:57:52.758Z,17.98
2018-06-21T08:00:21.393Z,14.03
2018-06-21T08:02:50.404Z,14.47
2018-06-21T08:05:19.179Z,17.92
2018-06-21T08:07:47.803Z,14.70
2018-06-21T08:10:16.583Z,13.98
2018-06-21T08:12:45.255Z,15.63
2018-06-21T08:15:14.797Z,16.45
2018-06-21T08:17:43.461Z,14.35
2018-06-21T08:20:12.241Z,13.10
2018-06-21T08:22:40.867Z,13.48
2018-06-21T08:25:09.526Z,17.80
2018-06-21T08:27:38.170Z,14.38
2018-06-21T08:30:06.819Z,16.55
2018-06-21T08:32:35.452Z,12.28
2018-06-21T08:35:04.133Z,12.53
2018-06-21T08:37:32.814Z,11.90
2018-06-21T08:40:01.463Z,16.27
2018-06-21T08:42:30.134Z,15.30
2018-06-21T08:44:58.836Z,15.60
2018-06-21T08:47:27.455Z,14.38
2018-06-21T08:49:56.122Z,12.98
2018-06-21T08:52:25.755Z,12.45
2018-06-21T08:54:54.453Z,13.58
2018-06-21T08:57:23.096Z,15.83
2018-06-21T08:59:51.792Z,11.93
2018-06-21T09:02:20.431Z,12.58
2018-06-21T09:04:49.723Z,9.60
2018-06-21T09:07:18.352Z,10.65
2018-06-21T09:09:46.985Z,10.40
2018-06-21T09:12:17.550Z,10.13
2018-06-21T09:14:46.800Z,12.15
2018-06-21T09:17:15.531Z,16.70
2018-06-21T09:19:45.097Z,21.00
2018-06-21T09:22:14.046Z,9.55
2018-06-21T09:24:43.082Z,7.08
2018-06-21T09:27:12.613Z,8.58
2018-06-21T09:29:41.239Z,7.40
2018-06-21T09:32:09.884Z,8.10
2018-06-21T09:34:38.555Z,8.68
2018-06-21T09:37:07.190Z,8.40
2018-06-21T09:39:41.070Z,8.80
2018-06-21T09:42:14.962Z,9.88
2018-06-21T09:44:48.982Z,8.15
2018-06-21T09:47:22.914Z,9.15
2018-06-21T09:49:51.603Z,8.08
2018-06-21T09:52:20.615Z,8.78
2018-06-21T09:54:49.247Z,8.90
2018-06-21T09:57:18.158Z,9.50
2018-06-21T09:59:46.790Z,9.65
2018-06-21T10:02:15.452Z,8.43
2018-06-21T10:04:44.207Z,9.80
2018-06-21T10:07:13.074Z,22.40
2018-06-21T10:09:41.527Z,24.00
2018-06-21T10:12:10.342Z,20.70
2018-06-21T10:14:38.984Z,18.02
2018-06-21T10:17:08.846Z,23.27
2018-06-21T10:19:38.582Z,15.05
2018-06-21T10:22:07.526Z,19.05
2018-06-21T10:24:36.183Z,16.45
2018-06-21T10:27:04.819Z,17.32
2018-06-21T10:29:33.819Z,11.25
2018-06-21T10:32:02.442Z,14.53
2018-06-21T10:34:31.091Z,10.13
2018-06-21T10:36:59.780Z,11.75
2018-06-21T10:39:28.394Z,10.45
2018-06-21T10:41:57.065Z,12.53
2018-06-21T10:44:26.309Z,11.12
2018-06-21T10:46:55.000Z,14.78
2018-06-21T10:49:23.729Z,14.58
2018-06-21T10:51:52.374Z,13.70
2018-06-21T10:54:20.999Z,10.00
2018-06-21T10:56:49.607Z,16.10
2018-06-21T10:59:18.277Z,11.05
2018-06-21T11:01:46.875Z,9.20
2018-06-21T11:04:15.511Z,10.72
2018-06-21T11:06:44.107Z,9.78
2018-06-21T11:09:12.742Z,7.97
2018-06-21T11:11:41.342Z,9.05
2018-06-21T11:14:09.963Z,7.37
2018-06-21T11:16:38.599Z,8.77
2018-06-21T11:19:07.275Z,9.33
2018-06-21T11:21:35.911Z,9.30
2018-06-21T11:24:04.568Z,10.53
2018-06-21T11:26:33.176Z,8.60
2018-06-21T11:29:02.611Z,20.03
2018-06-21T11:31:31.191Z,12.57
2018-06-21T11:33:59.766Z,11.53
2018-06-21T11:36:28.403Z,12.47
2018-06-21T11:38:56.990Z,8.20
2018-06-21T11:41:25.695Z,11.33
2018-06-21T11:43:54.342Z,14.77
2018-06-21T11:46:22.974Z,14.97
2018-06-21T11:48:51.643Z,10.27
2018-06-21T11:51:20.239Z,15.03
2018-06-21T11:53:48.873Z,15.57
2018-06-21T11:56:17.480Z,15.60
2018-06-21T11:58:46.066Z,12.13
2018-06-21T12:01:14.691Z,13.57
2018-06-21T12:03:43.359Z,13.80
2018-06-21T12:06:12.147Z,11.10
2018-06-21T12:08:40.892Z,13.70
2018-06-21T12:11:09.523Z,11.53
2018-06-21T12:13:38.412Z,11.20
2018-06-21T12:16:07.539Z,12.20
2018-06-21T12:18:36.124Z,10.97
2018-06-21T12:21:04.717Z,12.97
2018-06-21T12:23:33.355Z,12.10
2018-06-21T12:26:02.044Z,9.87
2018-06-21T12:28:30.720Z,11.10
2018-06-21T12:30:59.436Z,10.67
2018-06-21T12:33:28.043Z,11.57
2018-06-21T12:35:56.632Z,10.83
2018-06-21T12:38:25.233Z,10.30
2018-06-21T12:40:53.822Z,10.00
2018-06-21T12:43:22.502Z,12.00
2018-06-21T12:45:51.172Z,16.90
2018-06-21T12:48:19.765Z,13.67
2018-06-21T12:50:48.432Z,11.40
2018-06-21T12:53:17.426Z,9.00
2018-06-21T12:55:46.040Z,8.93
2018-06-21T12:58:14.629Z,10.30
2018-06-21T13:00:43.366Z,9.87
2018-06-21T13:03:13.013Z,10.77
2018-06-21T13:05:41.719Z,8.73
2018-06-21T13:08:10.913Z,9.00
2018-06-21T13:10:50.807Z,8.00
2018-06-21T13:13:26.792Z,7.50
2018-06-21T13:15:55.628Z,8.90
2018-06-21T13:18:24.563Z,10.23
2018-06-21T13:20:53.487Z,10.83
2018-06-21T13:23:22.683Z,9.27
2018-06-21T13:25:52.170Z,9.23
2018-06-21T13:28:22.691Z,9.10
2018-06-21T13:30:51.895Z,9.60
2018-06-21T13:33:20.868Z,9.87
2018-06-21T13:35:49.710Z,10.60
2018-06-21T13:38:19.627Z,11.23
2018-06-21T13:40:48.450Z,10.40
2018-06-21T13:43:17.312Z,14.70
2018-06-21T13:45:46.302Z,9.27
2018-06-21T13:48:15.108Z,9.60
2018-06-21T13:50:44.263Z,11.63
2018-06-21T13:53:13.498Z,9.83
2018-06-21T13:55:42.287Z,11.73
2018-06-21T13:58:11.239Z,9.40
2018-06-21T14:00:40.215Z,8.60
2018-06-21T14:03:09.300Z,8.80
2018-06-21T14:05:38.274Z,9.00
2018-06-21T14:08:07.410Z,8.50
2018-06-21T14:10:37.830Z,9.83
2018-06-21T14:13:06.790Z,9.43
2018-06-21T14:15:36.758Z,9.93
2018-06-21T14:18:05.602Z,9.67
2018-06-21T14:20:34.812Z,12.97
2018-06-21T14:23:03.739Z,9.77
2018-06-21T14:25:32.452Z,7.13
2018-06-21T14:28:01.231Z,8.97
2018-06-21T14:30:29.983Z,8.57
2018-06-21T14:32:58.655Z,8.40
2018-06-21T14:35:28.048Z,8.77
2018-06-21T14:37:56.786Z,9.37
2018-06-21T14:40:25.727Z,8.90
2018-06-21T14:42:54.346Z,8.10
2018-06-21T14:45:23.336Z,9.43
2018-06-21T14:47:52.085Z,8.60
2018-06-21T14:50:20.858Z,8.70
2018-06-21T14:52:49.571Z,11.13
2018-06-21T14:55:18.719Z,8.87
2018-06-21T14:57:47.673Z,9.17
2018-06-21T15:00:16.683Z,8.30
2018-06-21T15:02:46.022Z,8.00
2018-06-21T15:05:14.896Z,8.43
2018-06-21T15:07:43.867Z,8.23
2018-06-21T15:10:13.210Z,7.97
2018-06-21T15:12:42.276Z,8.80
2018-06-21T15:15:11.528Z,10.70
2018-06-21T15:17:40.766Z,11.80
2018-06-21T15:20:09.796Z,8.90
2018-06-21T15:22:38.967Z,9.23
2018-06-21T15:25:07.968Z,13.53
2018-06-21T15:27:36.988Z,15.13
2018-06-21T15:30:06.313Z,10.77
2018-06-21T15:32:35.228Z,10.53
2018-06-21T15:35:04.060Z,10.47
2018-06-21T15:37:33.180Z,11.10
2018-06-21T15:40:02.274Z,13.83
2018-06-21T15:42:31.813Z,9.57
2018-06-21T15:45:00.787Z,10.13
2018-06-21T15:47:29.956Z,10.60
2018-06-21T15:49:59.002Z,9.57
2018-06-21T15:52:27.967Z,9.13
2018-06-21T15:54:57.005Z,9.47
2018-06-21T15:57:25.910Z,11.63
2018-06-21T15:59:54.776Z,8.90
2018-06-21T16:02:23.671Z,10.40
2018-06-21T16:04:52.681Z,8.63
2018-06-21T16:07:21.891Z,11.43
2018-06-21T16:09:51.342Z,10.23
2018-06-21T16:12:20.308Z,20.27
2018-06-21T16:14:49.539Z,17.00
2018-06-21T16:17:18.551Z,13.20
2018-06-21T16:19:49.166Z,10.57
2018-06-21T16:22:19.395Z,15.77
2018-06-21T16:24:48.167Z,15.80
2018-06-21T16:27:16.961Z,16.20
2018-06-21T16:29:46.150Z,18.07
2018-06-21T16:32:15.190Z,11.20
2018-06-21T16:34:44.199Z,13.70
2018-06-21T16:37:13.230Z,14.47
2018-06-21T16:39:42.333Z,13.47
2018-06-21T16:42:12.075Z,10.27
2018-06-21T16:44:40.949Z,11.67
2018-06-21T16:47:10.029Z,15.80
2018-06-21T16:49:38.669Z,11.70
2018-06-21T16:52:07.411Z,9.63
2018-06-21T16:54:36.061Z,11.70
2018-06-21T16:57:04.814Z,9.53
2018-06-21T16:59:33.434Z,9.50
2018-06-21T17:02:02.612Z,8.47
2018-06-21T17:04:31.192Z,14.80
2018-06-21T17:06:59.903Z,10.43
2018-06-21T17:09:28.553Z,11.40
2018-06-21T17:11:57.138Z,15.67
2018-06-21T17:14:25.855Z,12.07
2018-06-21T17:16:54.649Z,18.27
2018-06-21T17:19:23.290Z,12.07
2018-06-21T17:21:52.299Z,13.57
2018-06-21T17:24:21.202Z,13.77
2018-06-21T17:26:49.798Z,11.93
2018-06-21T17:29:18.459Z,18.83
2018-06-21T17:31:47.067Z,11.90
2018-06-21T17:34:15.996Z,12.90
2018-06-21T17:36:44.652Z,14.33
2018-06-21T17:39:13.242Z,13.47
2018-06-21T17:41:41.926Z,11.83
2018-06-21T17:44:10.503Z,9.80
2018-06-21T17:46:39.099Z,11.90
2018-06-21T17:49:08.067Z,11.83
2018-06-21T17:51:36.691Z,11.20
2018-06-21T17:54:05.486Z,12.73
2018-06-21T17:56:34.223Z,10.43
2018-06-21T17:59:02.946Z,12.27
2018-06-21T18:01:31.628Z,12.47
2018-06-21T18:04:01.043Z,12.93
2018-06-21T18:06:29.621Z,12.50
2018-06-21T18:08:58.264Z,10.80
2018-06-21T18:11:26.861Z,16.83
2018-06-21T18:13:55.541Z,18.67
2018-06-21T18:16:24.141Z,14.03
2018-06-21T18:18:52.807Z,9.87
2018-06-21T18:21:21.454Z,11.20
2018-06-21T18:23:51.119Z,12.33
2018-06-21T18:26:19.831Z,13.60
2018-06-21T18:28:48.729Z,11.80
2018-06-21T18:31:17.811Z,12.67
2018-06-21T18:33:46.488Z,15.10
2018-06-21T18:36:15.112Z,10.47
2018-06-21T18:38:43.724Z,11.67
2018-06-21T18:41:12.790Z,11.90
2018-06-21T18:43:41.891Z,12.53
2018-06-21T18:46:11.237Z,11.50
2018-06-21T18:48:40.020Z,15.90
2018-06-21T18:51:08.864Z,15.63
2018-06-21T18:53:37.528Z,12.83
2018-06-21T18:56:06.337Z,16.07
2018-06-21T18:58:35.009Z,17.47
2018-06-21T19:01:04.619Z,20.70
2018-06-21T19:03:33.353Z,17.93
2018-06-21T19:06:02.552Z,12.00
2018-06-21T19:08:36.478Z,17.63
2018-06-21T19:11:11.942Z,11.23
2018-06-21T19:13:44.559Z,10.30
2018-06-21T19:16:14.164Z,11.50
2018-06-21T19:18:42.941Z,11.47
2018-06-21T19:21:12.168Z,11.10
2018-06-21T19:23:40.938Z,9.57
2018-06-21T19:26:10.266Z,12.17
2018-06-21T19:28:39.404Z,12.30
2018-06-21T19:31:08.143Z,13.07
2018-06-21T19:33:36.791Z,9.67
2018-06-21T19:36:05.612Z,13.23
2018-06-21T19:38:34.247Z,12.00
2018-06-21T19:41:02.878Z,10.23
2018-06-21T19:43:31.541Z,11.30
2018-06-21T19:46:00.178Z,10.73
2018-06-21T19:48:28.859Z,10.60
2018-06-21T19:50:57.664Z,10.27
2018-06-21T19:53:26.282Z,12.40
2018-06-21T19:55:54.914Z,11.97
2018-06-21T19:58:23.756Z,11.63
2018-06-21T20:00:52.384Z,15.63
2018-06-21T20:03:21.203Z,12.00
2018-06-21T20:05:49.731Z,11.43
2018-06-21T20:08:18.842Z,9.40
2018-06-21T20:10:51.748Z,9.60
2018-06-21T20:13:20.536Z,10.13
2018-06-21T20:15:52.608Z,10.43
2018-06-21T20:18:22.380Z,11.47
2018-06-21T20:20:51.154Z,10.60
2018-06-21T20:23:20.818Z,9.90
2018-06-21T20:25:49.849Z,9.70
2018-06-21T20:28:18.492Z,10.03
2018-06-21T20:30:47.146Z,9.90
2018-06-21T20:33:15.788Z,10.20
2018-06-21T20:35:44.696Z,10.13
2018-06-21T20:38:13.650Z,12.60
2018-06-21T20:40:42.234Z,12.03
2018-06-21T20:43:11.504Z,13.90
2018-06-21T20:45:40.840Z,13.43
2018-06-21T20:48:09.630Z,14.17
2018-06-21T20:50:38.930Z,14.67
2018-06-21T20:53:07.502Z,14.37
2018-06-21T20:55:36.903Z,16.80
2018-06-21T20:58:05.526Z,14.20
2018-06-21T21:00:34.200Z,16.87
2018-06-21T21:03:02.868Z,13.13
2018-06-21T21:05:31.553Z,12.83
2018-06-21T21:08:00.163Z,13.73
2018-06-21T21:10:28.780Z,14.13
2018-06-21T21:12:57.570Z,15.83
2018-06-21T21:15:26.248Z,16.73
2018-06-21T21:17:54.863Z,15.63
2018-06-21T21:20:23.443Z,24.97
2018-06-21T21:22:52.420Z,17.50
2018-06-21T21:25:21.030Z,26.87
2018-06-21T21:27:49.990Z,21.27
2018-06-21T21:30:18.880Z,18.10
2018-06-21T21:32:47.546Z,17.53
2018-06-21T21:35:16.132Z,16.93
2018-06-21T21:37:44.725Z,15.57
2018-06-21T21:40:13.360Z,16.83
2018-06-21T21:42:41.997Z,19.53
2018-06-21T21:45:10.608Z,15.87
2018-06-21T21:47:39.195Z,12.47
2018-06-21T21:50:08.290Z,12.73
2018-06-21T21:52:36.985Z,13.57
2018-06-21T21:55:05.631Z,11.73
2018-06-21T21:57:34.278Z,11.27
2018-06-21T22:00:03.202Z,11.33
2018-06-21T22:02:31.807Z,12.03
2018-06-21T22:05:01.911Z,12.60
2018-06-21T22:07:30.906Z,12.33
2018-06-21T22:09:59.493Z,11.67
2018-06-21T22:12:28.127Z,11.80
2018-06-21T22:14:56.760Z,14.83
2018-06-21T22:17:25.465Z,15.37
2018-06-21T22:19:54.108Z,13.30
2018-06-21T22:22:22.805Z,14.10
2018-06-21T22:24:51.388Z,13.90
2018-06-21T22:27:19.962Z,13.23
2018-06-21T22:29:48.571Z,13.40
2018-06-21T22:32:17.169Z,12.67
2018-06-21T22:34:45.828Z,12.83
2018-06-21T22:37:14.370Z,12.63
2018-06-21T22:39:43.026Z,13.37
2018-06-21T22:42:11.671Z,12.53
2018-06-21T22:44:40.269Z,13.17
2018-06-21T22:47:08.864Z,13.37
2018-06-21T22:49:37.523Z,14.03
2018-06-21T22:52:06.461Z,12.97
2018-06-21T22:54:35.100Z,12.70
2018-06-21T22:57:03.722Z,13.00
2018-06-21T22:59:32.348Z,12.53
2018-06-21T23:02:00.905Z,12.53
2018-06-21T23:04:29.552Z,12.70
2018-06-21T23:06:58.200Z,13.40
2018-06-21T23:09:27.012Z,16.40
2018-06-21T23:11:55.590Z,12.83
2018-06-21T23:14:24.218Z,14.80
2018-06-21T23:16:55.158Z,13.80
2018-06-21T23:19:29.931Z,13.33
2018-06-21T23:21:58.931Z,13.50
2018-06-21T23:24:27.819Z,12.63
2018-06-21T23:26:56.443Z,12.67
2018-06-21T23:29:25.276Z,13.57
2018-06-21T23:31:53.883Z,13.73
2018-06-21T23:34:23.204Z,12.87
2018-06-21T23:36:52.068Z,14.97
2018-06-21T23:39:20.671Z,12.10
2018-06-21T23:41:49.363Z,13.43
2018-06-21T23:44:17.948Z,14.17
2018-06-21T23:46:46.557Z,13.57
2018-06-21T23:49:15.203Z,17.57
2018-06-21T23:51:43.778Z,15.00
2018-06-21T23:54:13.584Z,14.93
2018-06-21T23:56:43.163Z,15.23
2018-06-21T23:59:11.875Z,15.83
